createdAt,value
2016-12-16T00:00:36.176Z,0
2016-12-16T00:01:44.750Z,0
2016-12-16T00:02:53.643Z,0
2016-12-16T00:04:02.221Z,0
2016-12-16T00:05:11.101Z,0
2016-12-16T00:06:20.416Z,0
2016-12-16T00:07:29.338Z,0
2016-12-16T00:08:38.228Z,0
2016-12-16T00:09:47.127Z,0
2016-12-16T00:10:55.717Z,0
2016-12-16T00:12:04.354Z,0
2016-12-16T00:13:13.263Z,0
2016-12-16T00:14:22.486Z,0
2016-12-16T00:15:31.077Z,0
2016-12-16T00:16:39.640Z,0
2016-12-16T00:17:48.367Z,0
2016-12-16T00:18:57.280Z,0
2016-12-16T00:20:06.165Z,0
2016-12-16T00:21:15.054Z,0
2016-12-16T00:22:23.642Z,0
2016-12-16T00:23:32.626Z,0
2016-12-16T00:24:41.209Z,0
2016-12-16T00:25:50.097Z,0
2016-12-16T00:26:59.326Z,0
2016-12-16T00:28:08.222Z,0
2016-12-16T00:29:16.845Z,0
2016-12-16T00:30:25.426Z,0
2016-12-16T00:31:34.014Z,0
2016-12-16T00:32:42.907Z,0
2016-12-16T00:33:52.124Z,0
2016-12-16T00:35:01.049Z,0
2016-12-16T00:36:09.629Z,0
2016-12-16T00:37:18.530Z,0
2016-12-16T00:38:27.116Z,0
2016-12-16T00:39:36.026Z,0
2016-12-16T00:40:45.027Z,0
2016-12-16T00:41:53.945Z,0
2016-12-16T00:43:02.532Z,0
2016-12-16T00:44:11.425Z,0
2016-12-16T00:45:20.009Z,0
2016-12-16T00:46:28.646Z,0
2016-12-16T00:47:37.227Z,0
2016-12-16T00:48:46.126Z,0
2016-12-16T00:49:54.698Z,0
2016-12-16T00:51:03.270Z,0
2016-12-16T00:52:12.211Z,0
2016-12-16T00:53:21.110Z,0
2016-12-16T00:54:30.011Z,0
2016-12-16T00:55:38.902Z,0
2016-12-16T00:56:47.796Z,0
2016-12-16T00:57:56.741Z,0
2016-12-16T00:59:05.317Z,0
2016-12-16T01:00:14.216Z,0
2016-12-16T01:01:23.130Z,0
2016-12-16T01:02:31.717Z,0
2016-12-16T01:03:40.720Z,0
2016-12-16T01:04:49.616Z,0
2016-12-16T01:05:58.189Z,0
2016-12-16T01:07:07.720Z,0
2016-12-16T01:08:16.301Z,0
2016-12-16T01:09:25.315Z,0
2016-12-16T01:10:34.216Z,0
2016-12-16T01:11:42.790Z,0
2016-12-16T01:12:51.369Z,0
2016-12-16T01:14:00.272Z,0
2016-12-16T01:15:09.217Z,0
2016-12-16T01:16:17.806Z,0
2016-12-16T01:17:26.696Z,0
2016-12-16T01:18:35.905Z,0
2016-12-16T01:19:44.492Z,0
2016-12-16T01:20:53.225Z,0
2016-12-16T01:22:02.114Z,0
2016-12-16T01:23:11.344Z,0
2016-12-16T01:24:20.259Z,0
2016-12-16T01:25:29.170Z,0
2016-12-16T01:26:37.835Z,0
2016-12-16T01:27:46.406Z,0
2016-12-16T01:28:54.993Z,0
2016-12-16T01:30:03.911Z,0
2016-12-16T01:31:12.502Z,0
2016-12-16T01:32:21.453Z,0
2016-12-16T01:33:30.362Z,0
2016-12-16T01:34:38.954Z,0
2016-12-16T01:35:47.550Z,0
2016-12-16T01:36:56.154Z,0
2016-12-16T01:38:05.535Z,0
2016-12-16T01:39:14.424Z,0
2016-12-16T01:40:22.991Z,0
2016-12-16T01:41:31.881Z,0
2016-12-16T01:42:41.105Z,0
2016-12-16T01:43:49.796Z,0
2016-12-16T01:44:58.694Z,0
2016-12-16T01:46:07.593Z,0
2016-12-16T01:47:16.508Z,0
2016-12-16T01:48:25.093Z,0
2016-12-16T01:49:34.029Z,0
2016-12-16T01:50:42.932Z,0
2016-12-16T01:51:52.154Z,0
2016-12-16T01:53:01.052Z,0
2016-12-16T01:54:09.936Z,0
2016-12-16T01:55:19.505Z,0
2016-12-16T01:56:28.086Z,0
2016-12-16T01:57:36.665Z,0
2016-12-16T01:58:45.581Z,0
2016-12-16T01:59:54.161Z,0
2016-12-16T02:01:03.117Z,0
2016-12-16T02:02:12.028Z,0
2016-12-16T02:03:20.938Z,0
2016-12-16T02:04:29.837Z,0
2016-12-16T02:05:38.416Z,0
2016-12-16T02:06:47.046Z,0
2016-12-16T02:07:55.928Z,0
2016-12-16T02:09:05.143Z,0
2016-12-16T02:10:14.375Z,0
2016-12-16T02:11:23.281Z,0
2016-12-16T02:12:32.555Z,0
2016-12-16T02:13:41.128Z,0
2016-12-16T02:14:50.035Z,0
2016-12-16T02:15:58.931Z,0
2016-12-16T02:17:07.826Z,0
2016-12-16T02:18:16.474Z,0
2016-12-16T02:19:25.050Z,0
2016-12-16T02:20:33.617Z,0
2016-12-16T02:21:42.503Z,0
2016-12-16T02:22:51.401Z,0
2016-12-16T02:24:00.680Z,0
2016-12-16T02:25:09.266Z,0
2016-12-16T02:26:17.845Z,0
2016-12-16T02:27:26.437Z,0
2016-12-16T02:28:35.342Z,0
2016-12-16T02:29:44.066Z,0
2016-12-16T02:30:58.911Z,0
2016-12-16T02:32:07.492Z,0
2016-12-16T02:33:16.739Z,0
2016-12-16T02:34:25.637Z,0
2016-12-16T02:35:34.617Z,0
2016-12-16T02:36:43.188Z,0
2016-12-16T02:37:51.782Z,0
2016-12-16T02:39:00.687Z,0
2016-12-16T02:40:09.590Z,0
2016-12-16T02:41:18.220Z,0
2016-12-16T02:42:26.796Z,0
2016-12-16T02:43:35.712Z,0
2016-12-16T02:44:44.621Z,0
2016-12-16T02:45:53.208Z,0
2016-12-16T02:47:02.147Z,0
2016-12-16T02:48:10.721Z,0
2016-12-16T02:49:19.308Z,0
2016-12-16T02:50:28.217Z,0
2016-12-16T02:51:36.811Z,0
2016-12-16T02:52:45.735Z,0
2016-12-16T02:53:55.288Z,0
2016-12-16T02:55:04.201Z,0
2016-12-16T02:56:13.100Z,0
2016-12-16T02:57:21.690Z,0
2016-12-16T02:58:30.643Z,0
2016-12-16T02:59:39.225Z,0
2016-12-16T03:00:47.802Z,0
2016-12-16T03:01:56.385Z,0
2016-12-16T03:03:05.272Z,0
2016-12-16T03:04:14.224Z,0
2016-12-16T03:05:23.427Z,0
2016-12-16T03:06:32.014Z,0
2016-12-16T03:07:40.907Z,0
2016-12-16T03:08:49.494Z,0
2016-12-16T03:09:58.140Z,0
2016-12-16T03:11:06.726Z,0
2016-12-16T03:12:15.639Z,0
2016-12-16T03:13:24.534Z,0
2016-12-16T03:14:33.756Z,0
2016-12-16T03:15:42.390Z,0
2016-12-16T03:16:50.974Z,0
2016-12-16T03:17:59.552Z,0
2016-12-16T03:19:08.446Z,0
2016-12-16T03:20:17.017Z,0
2016-12-16T03:21:26.294Z,0
2016-12-16T03:22:35.197Z,0
2016-12-16T03:23:44.099Z,0
2016-12-16T03:24:52.685Z,0
2016-12-16T03:26:01.595Z,0
2016-12-16T03:27:10.234Z,0
2016-12-16T03:28:19.452Z,0
2016-12-16T03:29:28.021Z,0
2016-12-16T03:30:36.613Z,0
2016-12-16T03:31:45.520Z,0
2016-12-16T03:32:54.781Z,0
2016-12-16T03:34:03.700Z,0
2016-12-16T03:35:12.621Z,0
2016-12-16T03:36:21.516Z,0
2016-12-16T03:37:30.106Z,0
2016-12-16T03:38:39.155Z,0
2016-12-16T03:39:48.066Z,0
2016-12-16T03:40:57.281Z,0
2016-12-16T03:42:05.870Z,0
2016-12-16T03:43:15.070Z,0
2016-12-16T03:44:24.014Z,0
2016-12-16T03:45:33.229Z,0
2016-12-16T03:46:42.135Z,0
2016-12-16T03:47:50.715Z,0
2016-12-16T03:48:59.310Z,0
2016-12-16T03:50:07.931Z,0
2016-12-16T03:51:17.146Z,0
2016-12-16T03:52:26.378Z,0
2016-12-16T03:53:34.972Z,0
2016-12-16T03:54:43.566Z,0
2016-12-16T03:55:52.197Z,0
2016-12-16T03:57:01.086Z,0
2016-12-16T03:58:10.302Z,0
2016-12-16T03:59:18.886Z,0
2016-12-16T04:00:27.793Z,0
2016-12-16T04:01:37.092Z,0
2016-12-16T04:02:45.991Z,0
2016-12-16T04:03:54.891Z,0
2016-12-16T04:05:03.794Z,0
2016-12-16T04:06:12.684Z,0
2016-12-16T04:07:21.675Z,0
2016-12-16T04:08:30.254Z,0
2016-12-16T04:09:38.855Z,0
2016-12-16T04:10:47.764Z,0
2016-12-16T04:11:56.651Z,0
2016-12-16T04:13:05.324Z,0
2016-12-16T04:14:14.215Z,0
2016-12-16T04:15:22.799Z,0
2016-12-16T04:16:31.682Z,0
2016-12-16T04:17:40.253Z,0
2016-12-16T04:18:49.344Z,0
2016-12-16T04:19:58.251Z,0
2016-12-16T04:21:07.157Z,0
2016-12-16T04:22:16.047Z,0
2016-12-16T04:23:24.634Z,0
2016-12-16T04:24:33.549Z,0
2016-12-16T04:25:42.123Z,0
2016-12-16T04:26:50.699Z,0
2016-12-16T04:27:59.912Z,0
2016-12-16T04:29:08.500Z,0
2016-12-16T04:30:17.552Z,0
2016-12-16T04:31:26.126Z,0
2016-12-16T04:32:34.725Z,0
2016-12-16T04:33:43.306Z,0
2016-12-16T04:34:52.202Z,0
2016-12-16T04:36:00.824Z,0
2016-12-16T04:37:09.730Z,0
2016-12-16T04:38:18.316Z,0
2016-12-16T04:39:27.228Z,0
2016-12-16T04:40:36.143Z,0
2016-12-16T04:41:45.183Z,0
2016-12-16T04:42:53.771Z,0
2016-12-16T04:44:02.675Z,0
2016-12-16T04:45:11.284Z,0
2016-12-16T04:46:19.872Z,0
2016-12-16T04:47:28.535Z,0
2016-12-16T04:48:37.105Z,0
2016-12-16T04:49:46.003Z,0
2016-12-16T04:50:55.230Z,0
2016-12-16T04:52:03.816Z,0
2016-12-16T04:53:12.533Z,0
2016-12-16T04:54:21.429Z,0
2016-12-16T04:55:30.005Z,0
2016-12-16T04:56:38.577Z,0
2016-12-16T04:57:47.479Z,0
2016-12-16T04:58:56.101Z,0
2016-12-16T05:00:05.001Z,0
2016-12-16T05:01:13.903Z,0
2016-12-16T05:02:22.487Z,0
2016-12-16T05:03:31.073Z,0
2016-12-16T05:04:39.703Z,0
2016-12-16T05:05:48.290Z,0
2016-12-16T05:06:57.523Z,0
2016-12-16T05:08:06.739Z,0
2016-12-16T05:09:15.359Z,0
2016-12-16T05:10:24.621Z,0
2016-12-16T05:11:33.525Z,0
2016-12-16T05:12:42.420Z,0
2016-12-16T05:13:51.001Z,0
2016-12-16T05:14:59.902Z,0
2016-12-16T05:16:08.905Z,0
2016-12-16T05:17:17.825Z,0
2016-12-16T05:18:27.036Z,0
2016-12-16T05:19:35.615Z,0
2016-12-16T05:20:44.505Z,0
2016-12-16T05:21:54.199Z,0
2016-12-16T05:23:02.797Z,0
2016-12-16T05:24:11.709Z,0
2016-12-16T05:25:20.295Z,0
2016-12-16T05:26:29.203Z,0
2016-12-16T05:27:38.468Z,0
2016-12-16T05:28:47.360Z,0
2016-12-16T05:29:55.949Z,0
2016-12-16T05:31:04.846Z,0
2016-12-16T05:32:14.064Z,0
2016-12-16T05:33:23.029Z,0
2016-12-16T05:34:31.936Z,0
2016-12-16T05:35:40.527Z,0
2016-12-16T05:36:49.108Z,0
2016-12-16T05:37:57.697Z,0
2016-12-16T05:39:07.595Z,0
2016-12-16T05:40:16.833Z,0
2016-12-16T05:41:25.747Z,0
2016-12-16T05:42:34.333Z,0
2016-12-16T05:43:43.227Z,0
2016-12-16T05:44:52.153Z,0
2016-12-16T05:46:01.046Z,0
2016-12-16T05:47:09.938Z,0
2016-12-16T05:48:18.841Z,0
2016-12-16T05:49:28.060Z,0
2016-12-16T05:50:36.686Z,0
2016-12-16T05:51:46.237Z,0
2016-12-16T05:52:55.144Z,0
2016-12-16T05:54:03.727Z,0
2016-12-16T05:55:12.307Z,0
2016-12-16T05:56:20.943Z,0
2016-12-16T05:57:29.508Z,0
2016-12-16T05:58:38.091Z,0
2016-12-16T05:59:46.976Z,0
2016-12-16T06:00:56.198Z,0
2016-12-16T06:02:05.199Z,0
2016-12-16T06:03:14.728Z,0
2016-12-16T06:04:23.629Z,0
2016-12-16T06:05:32.211Z,0
2016-12-16T06:06:41.095Z,0
2016-12-16T06:07:50.375Z,0
2016-12-16T06:08:58.942Z,0
2016-12-16T06:10:07.522Z,0
2016-12-16T06:11:16.434Z,0
2016-12-16T06:12:25.337Z,0
2016-12-16T06:13:34.360Z,0
2016-12-16T06:14:43.269Z,0
2016-12-16T06:15:51.860Z,0
2016-12-16T06:17:01.087Z,0
2016-12-16T06:18:09.660Z,0
2016-12-16T06:19:18.294Z,0
2016-12-16T06:20:27.197Z,0
2016-12-16T06:21:35.781Z,0
2016-12-16T06:22:44.673Z,0
2016-12-16T06:23:53.259Z,0
2016-12-16T06:25:02.210Z,0
2016-12-16T06:26:11.096Z,0
2016-12-16T06:27:19.679Z,0
2016-12-16T06:28:28.267Z,0
2016-12-16T06:29:37.523Z,0
2016-12-16T06:30:46.207Z,0
2016-12-16T06:31:55.469Z,0
2016-12-16T06:33:04.998Z,0
2016-12-16T06:34:13.579Z,0
2016-12-16T06:35:22.489Z,0
2016-12-16T06:36:31.844Z,0
2016-12-16T06:37:40.755Z,0
2016-12-16T06:38:49.650Z,0
2016-12-16T06:39:58.260Z,0
2016-12-16T06:41:07.491Z,0
2016-12-16T06:42:16.420Z,0
2016-12-16T06:43:25.645Z,0
2016-12-16T06:44:34.234Z,0
2016-12-16T06:45:42.809Z,0
2016-12-16T06:46:51.723Z,0
2016-12-16T06:48:00.975Z,0
2016-12-16T06:49:09.868Z,0
2016-12-16T06:50:18.455Z,0
2016-12-16T06:51:27.363Z,0
2016-12-16T06:52:35.945Z,0
2016-12-16T06:53:44.583Z,0
2016-12-16T06:54:53.542Z,0
2016-12-16T06:56:02.501Z,0
2016-12-16T06:57:11.741Z,0
2016-12-16T06:58:20.971Z,0
2016-12-16T06:59:30.549Z,0
2016-12-16T07:00:39.123Z,0
2016-12-16T07:01:48.063Z,0
2016-12-16T07:02:56.971Z,0
2016-12-16T07:04:05.864Z,0
2016-12-16T07:05:14.506Z,0
2016-12-16T07:06:23.427Z,0
2016-12-16T07:07:32.008Z,0
2016-12-16T07:08:41.235Z,0
2016-12-16T07:09:49.825Z,0
2016-12-16T07:10:58.484Z,0
2016-12-16T07:12:07.717Z,0
2016-12-16T07:13:16.624Z,0
2016-12-16T07:14:25.551Z,0
2016-12-16T07:15:34.458Z,0
2016-12-16T07:16:43.820Z,0
2016-12-16T07:17:52.730Z,0
2016-12-16T07:19:01.368Z,0
2016-12-16T07:20:09.942Z,0
2016-12-16T07:21:18.846Z,0
2016-12-16T07:22:27.787Z,0
2016-12-16T07:23:36.687Z,0
2016-12-16T07:24:45.271Z,0
2016-12-16T07:25:53.856Z,0
2016-12-16T07:27:02.434Z,5
2016-12-16T07:28:11.367Z,5
2016-12-16T07:29:20.600Z,5
2016-12-16T07:30:29.184Z,5
2016-12-16T07:31:38.083Z,5
2016-12-16T07:32:46.665Z,5
2016-12-16T07:33:56.265Z,5
2016-12-16T07:35:05.169Z,5
2016-12-16T07:36:13.751Z,5
2016-12-16T07:37:22.990Z,5
2016-12-16T07:38:31.588Z,10
2016-12-16T07:39:40.909Z,10
2016-12-16T07:40:50.153Z,10
2016-12-16T07:41:58.740Z,10
2016-12-16T07:43:07.655Z,10
2016-12-16T07:44:16.559Z,10
2016-12-16T07:45:25.196Z,10
2016-12-16T07:46:34.101Z,15
2016-12-16T07:47:42.702Z,15
2016-12-16T07:48:51.594Z,15
2016-12-16T07:50:00.174Z,15
2016-12-16T07:51:09.462Z,20
2016-12-16T07:52:18.027Z,20
2016-12-16T07:53:26.608Z,20
2016-12-16T07:54:35.187Z,20
2016-12-16T07:55:44.094Z,20
2016-12-16T07:56:52.717Z,25
2016-12-16T07:58:01.307Z,25
2016-12-16T07:59:09.893Z,25
2016-12-16T08:00:18.477Z,30
2016-12-16T08:01:27.076Z,30
2016-12-16T08:02:36.075Z,30
2016-12-16T08:03:45.007Z,30
2016-12-16T08:04:53.577Z,35
2016-12-16T08:06:02.155Z,35
2016-12-16T08:07:11.389Z,35
2016-12-16T08:08:20.032Z,40
2016-12-16T08:09:28.952Z,40
2016-12-16T08:10:37.538Z,40
2016-12-16T08:11:46.789Z,45
2016-12-16T08:12:55.382Z,45
2016-12-16T08:14:04.315Z,45
2016-12-16T08:15:12.919Z,50
2016-12-16T08:16:21.520Z,50
2016-12-16T08:17:30.096Z,50
2016-12-16T08:18:38.689Z,50
2016-12-16T08:19:47.330Z,55
2016-12-16T08:20:56.238Z,50
2016-12-16T08:22:04.825Z,55
2016-12-16T08:23:13.399Z,55
2016-12-16T08:24:22.297Z,55
2016-12-16T08:25:31.280Z,60
2016-12-16T08:26:39.865Z,60
2016-12-16T08:27:48.761Z,60
2016-12-16T08:28:57.681Z,65
2016-12-16T08:30:06.578Z,60
2016-12-16T08:31:15.539Z,65
2016-12-16T08:32:24.140Z,65
2016-12-16T08:33:33.051Z,65
2016-12-16T08:34:41.971Z,65
2016-12-16T08:35:50.568Z,70
2016-12-16T08:36:59.532Z,70
2016-12-16T08:38:08.119Z,75
2016-12-16T08:39:17.036Z,70
2016-12-16T08:40:25.622Z,75
2016-12-16T08:41:34.194Z,75
2016-12-16T08:42:43.252Z,75
2016-12-16T08:43:51.844Z,70
2016-12-16T08:45:00.751Z,75
2016-12-16T08:46:09.996Z,80
2016-12-16T08:47:18.888Z,75
2016-12-16T08:48:27.531Z,80
2016-12-16T08:49:36.808Z,80
2016-12-16T08:50:46.017Z,75
2016-12-16T08:51:54.934Z,75
2016-12-16T08:53:03.513Z,80
2016-12-16T08:54:12.546Z,75
2016-12-16T08:55:21.115Z,80
2016-12-16T08:56:30.011Z,85
2016-12-16T08:57:38.602Z,85
2016-12-16T08:58:48.157Z,80
2016-12-16T08:59:57.119Z,85
2016-12-16T09:01:05.710Z,80
2016-12-16T09:02:14.301Z,85
2016-12-16T09:03:22.879Z,95
2016-12-16T09:04:31.448Z,90
2016-12-16T09:05:40.081Z,95
2016-12-16T09:06:48.991Z,100
2016-12-16T09:07:57.892Z,100
2016-12-16T09:09:06.811Z,105
2016-12-16T09:10:15.701Z,95
2016-12-16T09:11:24.654Z,100
2016-12-16T09:12:33.568Z,110
2016-12-16T09:13:42.159Z,110
2016-12-16T09:14:50.732Z,110
2016-12-16T09:15:59.674Z,115
2016-12-16T09:17:08.408Z,110
2016-12-16T09:18:16.988Z,110
2016-12-16T09:19:25.889Z,115
2016-12-16T09:20:34.795Z,110
2016-12-16T09:21:44.014Z,115
2016-12-16T09:22:52.961Z,125
2016-12-16T09:24:01.870Z,125
2016-12-16T09:25:10.458Z,125
2016-12-16T09:26:20.005Z,120
2016-12-16T09:27:28.593Z,130
2016-12-16T09:28:37.563Z,125
2016-12-16T09:29:46.134Z,125
2016-12-16T09:30:55.039Z,120
2016-12-16T09:32:04.262Z,120
2016-12-16T09:33:13.468Z,135
2016-12-16T09:34:22.096Z,140
2016-12-16T09:35:30.707Z,140
2016-12-16T09:36:39.612Z,140
2016-12-16T09:37:48.203Z,140
2016-12-16T09:38:56.862Z,135
2016-12-16T09:40:06.208Z,140
2016-12-16T09:41:15.098Z,140
2016-12-16T09:42:24.019Z,145
2016-12-16T09:43:33.245Z,135
2016-12-16T09:44:42.144Z,150
2016-12-16T09:45:52.010Z,150
2016-12-16T09:47:00.633Z,155
2016-12-16T09:48:09.845Z,150
2016-12-16T09:49:18.734Z,160
2016-12-16T09:50:27.318Z,160
2016-12-16T09:51:36.910Z,145
2016-12-16T09:52:45.507Z,145
2016-12-16T09:53:54.434Z,155
2016-12-16T09:55:03.336Z,145
2016-12-16T09:56:11.921Z,130
2016-12-16T09:57:20.854Z,145
2016-12-16T09:58:29.441Z,140
2016-12-16T09:59:38.335Z,145
2016-12-16T10:00:47.243Z,160
2016-12-16T10:01:56.142Z,155
2016-12-16T10:03:04.875Z,145
2016-12-16T10:04:13.458Z,165
2016-12-16T10:05:22.057Z,165
2016-12-16T10:06:30.989Z,160
2016-12-16T10:07:39.896Z,160
2016-12-16T10:08:48.829Z,155
2016-12-16T10:09:57.415Z,155
2016-12-16T10:11:05.986Z,160
2016-12-16T10:12:14.888Z,160
2016-12-16T10:13:23.483Z,175
2016-12-16T10:14:32.447Z,165
2016-12-16T10:15:41.029Z,160
2016-12-16T10:16:50.239Z,160
2016-12-16T10:17:59.148Z,185
2016-12-16T10:19:08.041Z,190
2016-12-16T10:20:16.982Z,185
2016-12-16T10:21:26.184Z,195
2016-12-16T10:22:34.777Z,200
2016-12-16T10:23:44.027Z,195
2016-12-16T10:24:53.255Z,200
2016-12-16T10:26:02.927Z,195
2016-12-16T10:27:11.823Z,190
2016-12-16T10:28:20.738Z,205
2016-12-16T10:29:29.964Z,195
2016-12-16T10:30:38.857Z,185
2016-12-16T10:31:48.118Z,190
2016-12-16T10:32:57.017Z,195
2016-12-16T10:34:05.635Z,205
2016-12-16T10:35:15.177Z,200
2016-12-16T10:36:23.761Z,195
2016-12-16T10:37:32.719Z,190
2016-12-16T10:38:41.619Z,185
2016-12-16T10:39:50.851Z,190
2016-12-16T10:40:59.759Z,180
2016-12-16T10:42:09.006Z,200
2016-12-16T10:43:18.398Z,200
2016-12-16T10:44:26.991Z,190
2016-12-16T10:45:36.208Z,200
2016-12-16T10:46:45.110Z,200
2016-12-16T10:47:54.652Z,205
2016-12-16T10:49:03.299Z,210
2016-12-16T10:50:12.225Z,205
2016-12-16T10:51:20.794Z,210
2016-12-16T10:52:30.037Z,205
2016-12-16T10:53:38.632Z,210
2016-12-16T10:54:47.870Z,220
2016-12-16T10:55:56.474Z,230
2016-12-16T10:57:05.065Z,240
2016-12-16T10:58:13.671Z,220
2016-12-16T10:59:22.274Z,220
2016-12-16T11:00:30.921Z,220
2016-12-16T11:01:39.517Z,225
2016-12-16T11:02:48.432Z,220
2016-12-16T11:03:57.343Z,215
2016-12-16T11:05:05.936Z,220
2016-12-16T11:06:14.890Z,240
2016-12-16T11:07:23.807Z,240
2016-12-16T11:08:33.049Z,230
2016-12-16T11:09:41.957Z,230
2016-12-16T11:10:51.209Z,235
2016-12-16T11:11:59.844Z,245
2016-12-16T11:13:08.421Z,225
2016-12-16T11:14:17.325Z,225
2016-12-16T11:15:26.276Z,240
2016-12-16T11:16:34.875Z,230
2016-12-16T11:17:43.888Z,230
2016-12-16T11:18:52.466Z,220
2016-12-16T11:20:01.072Z,220
2016-12-16T11:21:09.666Z,225
2016-12-16T11:22:18.597Z,220
2016-12-16T11:23:28.159Z,220
2016-12-16T11:24:37.064Z,230
2016-12-16T11:25:45.631Z,220
2016-12-16T11:26:54.230Z,220
2016-12-16T11:28:03.477Z,215
2016-12-16T11:29:12.097Z,225
2016-12-16T11:30:20.685Z,220
2016-12-16T11:31:29.275Z,220
2016-12-16T11:32:38.518Z,215
2016-12-16T11:33:47.095Z,225
2016-12-16T11:34:56.055Z,215
2016-12-16T11:36:04.957Z,210
2016-12-16T11:37:13.556Z,210
2016-12-16T11:38:22.456Z,215
2016-12-16T11:39:31.379Z,220
2016-12-16T11:40:40.758Z,215
2016-12-16T11:41:49.363Z,230
2016-12-16T11:42:57.952Z,220
2016-12-16T11:44:06.869Z,210
2016-12-16T11:45:15.456Z,225
2016-12-16T11:46:24.098Z,230
2016-12-16T11:47:32.691Z,215
2016-12-16T11:48:41.607Z,220
2016-12-16T11:49:50.499Z,225
2016-12-16T11:51:00.039Z,235
2016-12-16T11:52:09.003Z,220
2016-12-16T11:53:17.584Z,225
2016-12-16T11:54:26.463Z,235
2016-12-16T11:55:35.371Z,230
2016-12-16T11:56:43.965Z,220
2016-12-16T11:57:52.996Z,230
2016-12-16T11:59:01.586Z,235
2016-12-16T12:00:10.491Z,230
2016-12-16T12:01:19.722Z,240
2016-12-16T12:02:28.310Z,250
2016-12-16T12:03:37.269Z,240
2016-12-16T12:04:45.859Z,230
2016-12-16T12:05:55.072Z,225
2016-12-16T12:07:03.659Z,240
2016-12-16T12:08:12.556Z,225
2016-12-16T12:09:21.441Z,230
2016-12-16T12:10:30.336Z,245
2016-12-16T12:11:39.282Z,245
2016-12-16T12:12:47.874Z,240
2016-12-16T12:13:57.097Z,240
2016-12-16T12:15:05.743Z,260
2016-12-16T12:16:14.658Z,255
2016-12-16T12:17:23.579Z,240
2016-12-16T12:18:32.476Z,245
2016-12-16T12:19:41.712Z,245
2016-12-16T12:20:50.339Z,235
2016-12-16T12:21:58.936Z,235
2016-12-16T12:23:07.554Z,235
2016-12-16T12:24:16.474Z,225
2016-12-16T12:25:25.386Z,225
2016-12-16T12:26:34.747Z,220
2016-12-16T12:27:43.357Z,225
2016-12-16T12:28:52.578Z,230
2016-12-16T12:30:01.154Z,235
2016-12-16T12:31:09.747Z,225
2016-12-16T12:32:18.696Z,205
2016-12-16T12:33:27.279Z,205
2016-12-16T12:34:36.180Z,215
2016-12-16T12:35:44.772Z,210
2016-12-16T12:36:53.359Z,200
2016-12-16T12:38:01.991Z,205
2016-12-16T12:39:10.580Z,200
2016-12-16T12:40:19.489Z,195
2016-12-16T12:41:28.083Z,200
2016-12-16T12:42:37.306Z,205
2016-12-16T12:43:46.250Z,200
2016-12-16T12:44:54.831Z,205
2016-12-16T12:46:03.402Z,210
2016-12-16T12:47:11.987Z,215
2016-12-16T12:48:20.578Z,220
2016-12-16T12:49:29.629Z,215
2016-12-16T12:50:38.576Z,215
2016-12-16T12:51:47.487Z,210
2016-12-16T12:52:56.388Z,200
2016-12-16T12:54:05.290Z,195
2016-12-16T12:55:14.667Z,200
2016-12-16T12:56:23.895Z,210
2016-12-16T12:57:32.795Z,210
2016-12-16T12:58:41.707Z,205
2016-12-16T12:59:50.294Z,210
2016-12-16T13:00:59.550Z,210
2016-12-16T13:02:08.785Z,210
2016-12-16T13:03:17.370Z,210
2016-12-16T13:04:26.255Z,215
2016-12-16T13:05:35.138Z,220
2016-12-16T13:06:43.775Z,215
2016-12-16T13:07:52.358Z,215
2016-12-16T13:09:01.255Z,205
2016-12-16T13:10:09.842Z,205
2016-12-16T13:11:19.380Z,210
2016-12-16T13:12:28.666Z,205
2016-12-16T13:13:38.226Z,200
2016-12-16T13:14:46.807Z,200
2016-12-16T13:15:55.699Z,210
2016-12-16T13:17:04.281Z,200
2016-12-16T13:18:12.926Z,195
2016-12-16T13:19:21.835Z,195
2016-12-16T13:20:30.428Z,210
2016-12-16T13:21:39.014Z,220
2016-12-16T13:22:47.908Z,215
2016-12-16T13:23:56.554Z,205
2016-12-16T13:25:05.143Z,205
2016-12-16T13:26:13.728Z,200
2016-12-16T13:27:22.942Z,195
2016-12-16T13:28:31.839Z,195
2016-12-16T13:29:41.113Z,195
2016-12-16T13:30:50.342Z,185
2016-12-16T13:31:58.925Z,175
2016-12-16T13:33:07.854Z,170
2016-12-16T13:34:16.761Z,175
2016-12-16T13:35:25.813Z,175
2016-12-16T13:36:34.725Z,180
2016-12-16T13:37:43.296Z,185
2016-12-16T13:38:52.209Z,185
2016-12-16T13:40:01.125Z,175
2016-12-16T13:41:10.071Z,175
2016-12-16T13:42:18.671Z,165
2016-12-16T13:43:27.898Z,165
2016-12-16T13:44:36.490Z,165
2016-12-16T13:45:45.079Z,165
2016-12-16T13:46:54.337Z,165
2016-12-16T13:48:03.242Z,165
2016-12-16T13:49:11.830Z,155
2016-12-16T13:50:20.416Z,150
2016-12-16T13:51:28.998Z,145
2016-12-16T13:52:38.356Z,135
2016-12-16T13:53:46.949Z,135
2016-12-16T13:54:55.853Z,130
2016-12-16T13:56:04.768Z,130
2016-12-16T13:57:13.365Z,130
2016-12-16T13:58:22.001Z,135
2016-12-16T13:59:30.592Z,135
2016-12-16T14:00:39.506Z,130
2016-12-16T14:01:48.755Z,125
2016-12-16T14:02:57.664Z,120
2016-12-16T14:04:06.618Z,115
2016-12-16T14:05:15.859Z,110
2016-12-16T14:06:24.431Z,110
2016-12-16T14:07:33.664Z,105
2016-12-16T14:08:42.883Z,110
2016-12-16T14:09:51.512Z,110
2016-12-16T14:11:00.408Z,105
2016-12-16T14:12:09.000Z,105
2016-12-16T14:13:17.913Z,100
2016-12-16T14:14:26.495Z,100
2016-12-16T14:15:35.119Z,95
2016-12-16T14:16:44.335Z,90
2016-12-16T14:17:53.237Z,85
2016-12-16T14:19:01.830Z,80
2016-12-16T14:20:10.739Z,80
2016-12-16T14:21:20.331Z,80
2016-12-16T14:22:29.539Z,75
2016-12-16T14:23:38.129Z,75
2016-12-16T14:24:46.738Z,70
2016-12-16T14:25:55.958Z,65
2016-12-16T14:27:05.288Z,70
2016-12-16T14:28:13.885Z,70
2016-12-16T14:29:22.780Z,70
2016-12-16T14:30:31.369Z,65
2016-12-16T14:31:40.269Z,60
2016-12-16T14:32:49.253Z,60
2016-12-16T14:33:59.128Z,60
2016-12-16T14:35:07.715Z,55
2016-12-16T14:36:16.297Z,50
2016-12-16T14:37:24.881Z,50
2016-12-16T14:38:33.520Z,45
2016-12-16T14:39:42.110Z,45
2016-12-16T14:40:51.010Z,40
2016-12-16T14:42:00.536Z,40
2016-12-16T14:43:09.122Z,40
2016-12-16T14:44:18.091Z,40
2016-12-16T14:45:26.976Z,35
2016-12-16T14:46:35.868Z,35
2016-12-16T14:47:45.093Z,35
2016-12-16T14:48:53.981Z,35
2016-12-16T14:50:02.934Z,30
2016-12-16T14:51:11.826Z,30
2016-12-16T14:52:20.723Z,25
2016-12-16T14:53:29.308Z,25
2016-12-16T14:54:37.889Z,20
2016-12-16T14:55:47.176Z,20
2016-12-16T14:56:56.409Z,20
2016-12-16T14:58:05.311Z,20
2016-12-16T14:59:14.204Z,15
2016-12-16T15:00:23.105Z,15
2016-12-16T15:01:32.174Z,15
2016-12-16T15:02:41.082Z,15
2016-12-16T15:03:49.972Z,10
2016-12-16T15:04:58.572Z,10
2016-12-16T15:06:07.159Z,10
2016-12-16T15:07:16.184Z,10
2016-12-16T15:08:24.768Z,10
2016-12-16T15:09:33.996Z,10
2016-12-16T15:10:42.582Z,10
2016-12-16T15:11:51.170Z,10
2016-12-16T15:12:59.854Z,5
2016-12-16T15:14:08.746Z,5
2016-12-16T15:15:17.649Z,5
2016-12-16T15:16:26.247Z,5
2016-12-16T15:17:35.154Z,5
2016-12-16T15:18:44.158Z,5
2016-12-16T15:19:53.057Z,5
2016-12-16T15:21:01.649Z,5
2016-12-16T15:22:10.565Z,5
2016-12-16T15:23:19.146Z,5
2016-12-16T15:24:28.527Z,0
2016-12-16T15:25:37.760Z,0
2016-12-16T15:26:46.668Z,0
2016-12-16T15:27:55.252Z,0
2016-12-16T15:29:03.838Z,0
2016-12-16T15:30:12.468Z,0
2016-12-16T15:31:21.693Z,0
2016-12-16T15:32:30.268Z,0
2016-12-16T15:33:38.868Z,0
2016-12-16T15:34:47.767Z,0
2016-12-16T15:35:56.780Z,0
2016-12-16T15:37:05.698Z,0
2016-12-16T15:38:14.914Z,0
2016-12-16T15:39:24.129Z,0
2016-12-16T15:40:33.055Z,0
2016-12-16T15:41:43.069Z,0
2016-12-16T15:42:51.634Z,0
2016-12-16T15:44:00.550Z,0
2016-12-16T15:45:09.771Z,0
2016-12-16T15:46:18.339Z,0
2016-12-16T15:47:27.650Z,0
2016-12-16T15:48:36.566Z,0
2016-12-16T15:49:45.136Z,0
2016-12-16T15:50:54.047Z,0
2016-12-16T15:52:02.629Z,0
2016-12-16T15:53:12.250Z,0
2016-12-16T15:54:21.154Z,0
2016-12-16T15:55:30.384Z,0
2016-12-16T15:56:38.982Z,0
2016-12-16T15:57:47.562Z,0
2016-12-16T15:58:56.835Z,0
2016-12-16T16:00:05.407Z,0
2016-12-16T16:01:14.641Z,0
2016-12-16T16:02:23.218Z,0
2016-12-16T16:03:32.112Z,0
2016-12-16T16:04:41.386Z,0
2016-12-16T16:05:49.961Z,0
2016-12-16T16:06:59.179Z,0
2016-12-16T16:08:07.771Z,0
2016-12-16T16:09:16.344Z,0
2016-12-16T16:10:25.290Z,0
2016-12-16T16:11:33.857Z,0
2016-12-16T16:12:42.761Z,0
2016-12-16T16:13:51.344Z,0
2016-12-16T16:15:00.260Z,0
2016-12-16T16:16:09.209Z,0
2016-12-16T16:17:18.106Z,0
2016-12-16T16:18:27.023Z,0
2016-12-16T16:19:35.920Z,0
2016-12-16T16:20:45.131Z,0
2016-12-16T16:21:54.077Z,0
2016-12-16T16:23:02.981Z,0
2016-12-16T16:24:11.554Z,0
2016-12-16T16:25:20.764Z,0
2016-12-16T16:26:29.336Z,0
2016-12-16T16:27:38.584Z,0
2016-12-16T16:28:47.487Z,0
2016-12-16T16:29:56.380Z,0